Time;durP1;ratioP1;P1;durP2;ratioP2;P2;SDS_P1;SDS_P2;PMS_P1;PMS_P2;Temp;Humidity;BMP_temperature;BMP_pressure;BME280_temperature;BME280_humidity;BME280_pressure;Samples;Min_cycle;Max_cycle;Signal;HPM_P1;HPM_P2
2022/06/01 00:02:21;;;;;;;15.07;10.63;;;10.50;99.90;;;;;;5074138;28;20039;-63
2022/06/01 00:04:47;;;;;;;14.23;10.75;;;10.50;99.90;;;;;;5068821;28;20020;-63
2022/06/01 00:07:12;;;;;;;16.10;11.80;;;10.50;99.90;;;;;;5072792;28;20093;-63
2022/06/01 00:09:38;;;;;;;13.63;10.32;;;10.50;99.90;;;;;;5067783;28;20032;-63
2022/06/01 00:12:05;;;;;;;13.55;10.07;;;10.50;99.90;;;;;;5071768;28;20063;-63
2022/06/01 00:14:33;;;;;;;19.45;11.40;;;10.40;99.90;;;;;;5068882;28;20036;-62
2022/06/01 00:16:58;;;;;;;14.10;10.45;;;10.40;99.90;;;;;;5070372;28;20079;-63
2022/06/01 00:19:24;;;;;;;16.60;11.05;;;10.40;99.90;;;;;;5067785;28;20056;-63
2022/06/01 00:24:34;;;;;;;17.35;11.35;;;10.30;99.90;;;;;;5072603;28;20430;-63
2022/06/01 00:26:59;;;;;;;17.98;11.32;;;10.30;99.90;;;;;;5070877;28;20063;-63
2022/06/01 00:29:25;;;;;;;16.00;11.57;;;10.30;99.90;;;;;;5083258;28;20053;-62
2022/06/01 00:31:50;;;;;;;15.02;11.05;;;10.30;99.90;;;;;;5071728;28;20111;-63
2022/06/01 00:34:17;;;;;;;15.38;11.15;;;10.30;99.90;;;;;;5073919;28;20044;-63
2022/06/01 00:36:43;;;;;;;18.13;11.88;;;10.30;99.90;;;;;;5073537;28;20044;-63
2022/06/01 00:39:08;;;;;;;16.17;12.23;;;10.30;99.90;;;;;;5066762;28;20036;-63
2022/06/01 00:41:34;;;;;;;17.02;12.38;;;10.20;99.90;;;;;;5067520;28;20044;-62
2022/06/01 00:43:59;;;;;;;17.77;11.93;;;10.20;99.90;;;;;;5070913;28;20056;-63
2022/06/01 00:46:25;;;;;;;16.75;11.07;;;10.30;99.90;;;;;;5079290;28;20131;-63
2022/06/01 00:48:53;;;;;;;16.60;11.20;;;10.20;99.90;;;;;;5076760;28;20526;-63
2022/06/01 00:51:24;;;;;;;17.10;11.63;;;10.20;99.90;;;;;;5070847;28;20036;-63
2022/06/01 00:53:52;;;;;;;13.77;11.10;;;10.20;99.90;;;;;;5069037;28;20044;-63
2022/06/01 00:56:22;;;;;;;16.80;11.23;;;10.20;99.90;;;;;;5054088;28;20045;-63
2022/06/01 00:58:51;;;;;;;17.55;11.73;;;10.20;99.90;;;;;;5073526;28;20041;-63
2022/06/01 01:01:19;;;;;;;17.35;11.25;;;10.20;99.90;;;;;;5071215;28;20036;-63
2022/06/01 01:03:49;;;;;;;15.43;11.35;;;10.20;99.90;;;;;;5070120;28;20040;-62
2022/06/01 01:06:26;;;;;;;17.02;11.07;;;10.20;99.90;;;;;;5076171;28;20044;-63
2022/06/01 01:08:52;;;;;;;16.50;11.10;;;10.20;99.90;;;;;;5078019;28;20463;-62
2022/06/01 01:11:43;;;;;;;16.33;11.10;;;10.10;99.90;;;;;;5078448;28;20124;-63
2022/06/01 01:14:10;;;;;;;15.98;11.13;;;10.10;99.90;;;;;;5087462;28;20039;-63
2022/06/01 01:16:36;;;;;;;17.17;11.40;;;10.10;99.90;;;;;;5072106;28;20052;-63
2022/06/01 01:19:06;;;;;;;17.25;11.38;;;10.20;99.90;;;;;;5089798;28;20480;-62
2022/06/01 01:21:57;;;;;;;16.65;11.68;;;10.20;99.90;;;;;;5088680;28;20040;-63
2022/06/01 01:24:28;;;;;;;16.33;11.98;;;10.20;99.90;;;;;;5072655;28;20032;-63
2022/06/01 01:26:56;;;;;;;17.98;12.90;;;10.20;99.90;;;;;;5075864;28;20083;-63
2022/06/01 01:29:36;;;;;;;23.25;12.85;;;10.20;99.90;;;;;;5074107;28;20038;-63
2022/06/01 01:32:05;;;;;;;17.45;13.13;;;10.20;99.90;;;;;;5071647;28;20121;-63
2022/06/01 01:34:32;;;;;;;18.50;14.02;;;10.20;99.90;;;;;;5087329;28;20123;-63
2022/06/01 01:37:01;;;;;;;22.40;15.23;;;10.20;99.90;;;;;;5081292;28;20503;-62
2022/06/01 01:39:31;;;;;;;19.52;14.75;;;10.20;99.90;;;;;;5084231;28;20105;-63
2022/06/01 01:41:57;;;;;;;20.33;13.82;;;10.20;99.90;;;;;;5072710;28;20044;-63
2022/06/01 01:44:32;;;;;;;19.48;14.68;;;10.20;99.90;;;;;;5083167;28;20052;-63
2022/06/01 01:46:58;;;;;;;19.88;14.95;;;10.20;99.90;;;;;;5073526;28;20040;-63
2022/06/01 01:49:30;;;;;;;22.50;15.57;;;10.20;99.90;;;;;;5071885;28;20413;-63
2022/06/01 01:51:59;;;;;;;25.25;14.90;;;10.20;99.90;;;;;;5076348;28;20044;-63
2022/06/01 01:54:52;;;;;;;19.05;13.80;;;10.20;99.90;;;;;;5070630;28;20672;-63
2022/06/01 01:57:43;;;;;;;18.67;13.98;;;10.20;99.90;;;;;;5071663;28;20033;-63
2022/06/01 02:00:24;;;;;;;20.67;14.75;;;10.20;99.90;;;;;;5070155;28;20123;-63
2022/06/01 02:03:04;;;;;;;;;;;10.20;99.90;;;;;;5072582;28;20040;-62
2022/06/01 02:08:46;;;;;;;21.15;15.00;;;10.10;99.90;;;;;;5070792;28;20500;-62
2022/06/01 02:14:05;;;;;;;21.45;14.20;;;10.10;99.90;;;;;;5071023;28;20037;-63
2022/06/01 02:16:36;;;;;;;21.98;14.70;;;10.00;99.90;;;;;;5070641;28;20492;-63
2022/06/01 02:19:06;;;;;;;21.63;14.90;;;10.00;99.90;;;;;;5083340;28;20389;-62
2022/06/01 02:21:32;;;;;;;19.50;14.73;;;10.00;99.90;;;;;;5074749;28;20044;-63
2022/06/01 02:24:00;;;;;;;21.00;14.88;;;10.00;99.90;;;;;;5071414;28;20490;-62
2022/06/01 02:26:27;;;;;;;22.77;15.45;;;10.00;99.90;;;;;;5072070;28;20731;-63
2022/06/01 02:28:59;;;;;;;22.13;14.30;;;10.00;99.90;;;;;;5072949;28;20598;-63
2022/06/01 02:31:25;;;;;;;22.75;15.52;;;10.00;99.90;;;;;;5082256;28;20036;-63
2022/06/01 02:33:52;;;;;;;20.83;15.73;;;10.10;99.90;;;;;;5079410;28;20472;-62
2022/06/01 02:36:20;;;;;;;20.50;15.20;;;10.10;99.90;;;;;;5069307;28;20036;-63
2022/06/01 02:38:49;;;;;;;21.83;15.13;;;10.10;99.90;;;;;;5071365;28;20032;-63
2022/06/01 02:44:01;;;;;;;20.15;15.88;;;10.20;99.90;;;;;;5079473;28;20476;-63
2022/06/01 02:46:28;;;;;;;19.98;15.23;;;10.20;99.90;;;;;;5072046;28;20135;-63
2022/06/01 02:48:55;;;;;;;22.13;15.50;;;10.20;99.90;;;;;;5065661;28;20036;-62
2022/06/01 02:51:21;;;;;;;22.70;16.13;;;10.20;99.90;;;;;;5077025;28;20040;-63
2022/06/01 02:53:48;;;;;;;26.58;17.38;;;10.20;99.90;;;;;;5068719;28;20396;-63
2022/06/01 02:56:15;;;;;;;23.13;15.85;;;10.20;99.90;;;;;;5070335;28;20036;-63
2022/06/01 02:58:40;;;;;;;22.55;16.33;;;10.30;99.90;;;;;;5089985;28;20082;-63
2022/06/01 03:01:07;;;;;;;21.70;16.92;;;10.30;99.90;;;;;;5078833;28;20064;-63
2022/06/01 03:03:34;;;;;;;21.73;16.85;;;10.30;99.90;;;;;;5069548;28;20068;-63
2022/06/01 03:05:59;;;;;;;22.23;15.82;;;10.30;99.90;;;;;;5070367;28;20033;-63
2022/06/01 03:08:25;;;;;;;24.15;17.38;;;10.30;99.90;;;;;;5072529;28;20040;-63
2022/06/01 03:10:52;;;;;;;23.17;16.65;;;10.40;99.90;;;;;;5070975;28;20031;-63
2022/06/01 03:13:19;;;;;;;23.20;17.42;;;10.30;99.90;;;;;;5086385;28;20048;-63
2022/06/01 03:15:45;;;;;;;23.42;17.20;;;10.30;99.90;;;;;;5080043;28;20076;-63
2022/06/01 03:18:10;;;;;;;24.30;17.30;;;10.30;99.90;;;;;;5068512;28;20071;-62
2022/06/01 03:20:38;;;;;;;23.85;16.42;;;10.30;99.90;;;;;;5069616;28;20040;-63
2022/06/01 03:23:04;;;;;;;24.52;17.50;;;10.30;99.90;;;;;;5072432;28;20040;-63
2022/06/01 03:25:30;;;;;;;27.48;18.27;;;10.30;99.90;;;;;;5078764;28;20129;-63
2022/06/01 03:27:57;;;;;;;23.98;17.52;;;10.40;99.90;;;;;;5071012;28;20029;-63
2022/06/01 03:30:23;;;;;;;23.95;17.98;;;10.40;99.90;;;;;;5071788;28;20032;-63
2022/06/01 03:32:50;;;;;;;24.80;18.10;;;10.40;99.90;;;;;;5089048;28;20448;-63
2022/06/01 03:35:26;;;;;;;25.55;18.17;;;10.40;99.90;;;;;;5073016;28;20044;-62
2022/06/01 03:37:52;;;;;;;24.65;18.65;;;10.40;99.90;;;;;;5069097;28;20106;-61
2022/06/01 03:40:20;;;;;;;30.63;19.52;;;10.40;99.90;;;;;;5070262;28;20068;-62
2022/06/01 03:42:45;;;;;;;25.25;18.85;;;10.50;99.90;;;;;;5074436;28;20044;-63
2022/06/01 03:47:56;;;;;;;25.33;19.05;;;10.40;99.90;;;;;;5076483;28;20400;-63
2022/06/01 03:50:23;;;;;;;23.88;17.65;;;10.50;99.90;;;;;;5065497;28;20040;-62
2022/06/01 03:52:49;;;;;;;26.42;19.23;;;10.50;99.90;;;;;;5069098;28;20086;-62
2022/06/01 03:55:15;;;;;;;26.42;17.67;;;10.50;99.90;;;;;;5067441;28;20044;-62
2022/06/01 03:57:42;;;;;;;26.58;18.70;;;10.40;99.90;;;;;;5068163;28;20044;-63
2022/06/01 04:00:09;;;;;;;27.00;19.30;;;10.50;99.90;;;;;;5069426;28;20051;-62
2022/06/01 04:02:37;;;;;;;26.83;19.52;;;10.60;99.90;;;;;;5071177;28;20037;-62
2022/06/01 04:05:03;;;;;;;26.05;18.38;;;10.60;99.90;;;;;;5067793;28;20090;-63
2022/06/01 04:07:29;;;;;;;27.42;20.35;;;10.60;99.90;;;;;;5071419;28;20039;-63
2022/06/01 04:09:54;;;;;;;26.85;19.33;;;10.60;99.90;;;;;;5073243;28;20036;-62
2022/06/01 04:12:20;;;;;;;28.20;19.80;;;10.60;99.90;;;;;;5068158;28;20420;-62
2022/06/01 04:14:45;;;;;;;27.50;19.30;;;10.60;99.90;;;;;;5069741;28;20435;-63
2022/06/01 04:17:11;;;;;;;27.55;20.27;;;10.60;99.90;;;;;;5069838;28;20043;-63
2022/06/01 04:19:36;;;;;;;25.08;19.25;;;10.60;99.90;;;;;;5082513;28;20044;-62
2022/06/01 04:22:02;;;;;;;29.00;21.13;;;10.60;99.90;;;;;;5079609;28;20066;-63
2022/06/01 04:24:32;;;;;;;27.00;20.25;;;10.60;99.90;;;;;;5071672;28;20058;-62
2022/06/01 04:26:57;;;;;;;28.45;20.38;;;10.60;99.90;;;;;;5070178;28;20416;-62
2022/06/01 04:29:23;;;;;;;26.67;20.38;;;10.70;99.90;;;;;;5073652;28;20032;-63
2022/06/01 04:31:53;;;;;;;29.60;20.63;;;10.70;99.90;;;;;;5069200;28;20024;-62
2022/06/01 04:34:19;;;;;;;24.90;19.83;;;10.70;99.90;;;;;;5070905;28;20106;-62
2022/06/01 04:36:45;;;;;;;25.60;19.23;;;10.70;99.90;;;;;;5079914;28;20036;-62
2022/06/01 04:39:11;;;;;;;28.80;20.33;;;10.70;99.90;;;;;;5074883;28;20045;-62
2022/06/01 04:41:36;;;;;;;29.08;20.65;;;10.70;99.90;;;;;;5084593;28;20134;-63
2022/06/01 04:44:02;;;;;;;28.05;20.65;;;10.80;99.90;;;;;;5074776;28;20056;-62
2022/06/01 04:46:28;;;;;;;31.30;20.70;;;10.80;99.90;;;;;;5078268;28;20052;-62
2022/06/01 04:48:53;;;;;;;27.73;20.08;;;10.90;99.90;;;;;;5070573;28;20029;-63
2022/06/01 04:51:19;;;;;;;26.35;19.23;;;10.90;99.90;;;;;;5082566;28;20082;-63
2022/06/01 04:53:45;;;;;;;29.25;21.13;;;10.90;99.90;;;;;;5069584;28;20029;-62
2022/06/01 04:56:11;;;;;;;27.23;20.73;;;11.00;99.90;;;;;;5074632;28;20032;-63
2022/06/01 04:58:38;;;;;;;28.05;19.83;;;11.00;99.90;;;;;;5071240;28;20052;-62
2022/06/01 05:01:04;;;;;;;27.15;21.23;;;11.10;99.90;;;;;;5077849;28;20064;-62
2022/06/01 05:03:30;;;;;;;26.08;19.30;;;11.20;99.90;;;;;;5082863;28;20122;-63
2022/06/01 05:05:56;;;;;;;26.88;19.15;;;11.20;99.90;;;;;;5079101;28;20127;-63
2022/06/01 05:08:22;;;;;;;28.77;20.00;;;11.20;99.90;;;;;;5071682;28;20048;-63
2022/06/01 05:10:47;;;;;;;29.55;20.67;;;11.30;99.90;;;;;;5083314;28;20036;-62
2022/06/01 05:13:17;;;;;;;29.23;18.85;;;11.30;99.90;;;;;;5080061;28;20090;-63
2022/06/01 05:15:51;;;;;;;29.77;20.20;;;11.30;99.90;;;;;;5072833;28;20059;-63
2022/06/01 05:18:17;;;;;;;25.85;18.42;;;11.30;99.90;;;;;;5077636;28;20045;-63
2022/06/01 05:20:44;;;;;;;28.02;20.50;;;11.30;99.90;;;;;;5079858;28;20043;-63
2022/06/01 05:23:09;;;;;;;27.50;19.55;;;11.20;99.90;;;;;;5072453;28;20644;-63
2022/06/01 05:25:35;;;;;;;26.15;19.17;;;11.20;99.90;;;;;;5070039;28;20041;-62
2022/06/01 05:28:01;;;;;;;29.40;20.25;;;11.20;99.90;;;;;;5072277;28;20032;-62
2022/06/01 05:30:26;;;;;;;25.95;19.10;;;11.20;99.90;;;;;;5067477;28;20046;-63
2022/06/01 05:32:52;;;;;;;26.45;18.50;;;11.20;99.90;;;;;;5075129;28;20041;-63
2022/06/01 05:35:18;;;;;;;25.48;19.10;;;11.20;99.90;;;;;;5089582;28;20436;-63
2022/06/01 05:37:43;;;;;;;25.83;18.65;;;11.20;99.90;;;;;;5082098;28;20044;-63
2022/06/01 05:40:09;;;;;;;25.40;18.85;;;11.10;99.90;;;;;;5076523;28;20385;-62
2022/06/01 05:42:35;;;;;;;29.02;19.17;;;11.10;99.90;;;;;;5074143;28;20048;-63
2022/06/01 05:45:00;;;;;;;27.52;19.55;;;11.10;99.90;;;;;;5071768;28;20033;-63
2022/06/01 05:47:26;;;;;;;24.77;18.23;;;11.00;99.90;;;;;;5069279;28;20527;-63
2022/06/01 05:49:52;;;;;;;25.70;19.13;;;11.00;99.90;;;;;;5065427;28;21760;-62
2022/06/01 05:52:18;;;;;;;23.50;16.38;;;11.00;99.90;;;;;;5072344;28;20068;-63
2022/06/01 05:54:47;;;;;;;25.65;18.63;;;11.00;99.90;;;;;;5077434;28;20044;-63
2022/06/01 05:57:13;;;;;;;25.88;18.80;;;11.10;99.90;;;;;;5077141;28;20382;-63
2022/06/01 05:59:39;;;;;;;22.90;17.90;;;11.10;99.90;;;;;;5078877;28;20040;-63
2022/06/01 06:02:06;;;;;;;25.15;17.98;;;11.20;99.90;;;;;;5076613;28;20464;-63
2022/06/01 06:04:32;;;;;;;23.52;16.70;;;11.30;99.90;;;;;;5071695;28;20049;-63
2022/06/01 06:06:57;;;;;;;23.23;16.95;;;11.30;99.90;;;;;;5072350;28;20093;-63
2022/06/01 06:09:24;;;;;;;20.15;15.52;;;11.30;99.90;;;;;;5071971;28;20591;-63
2022/06/01 06:11:51;;;;;;;21.38;15.63;;;11.40;99.90;;;;;;5073883;28;20045;-63
2022/06/01 06:14:18;;;;;;;25.65;17.05;;;11.50;99.90;;;;;;5079755;28;20032;-63
2022/06/01 06:16:45;;;;;;;20.50;14.52;;;11.60;99.90;;;;;;5082274;28;20419;-62
2022/06/01 06:19:12;;;;;;;17.85;14.00;;;11.60;99.90;;;;;;5087723;28;20032;-62
2022/06/01 06:21:38;;;;;;;18.75;14.07;;;11.70;99.90;;;;;;5072890;28;20040;-62
2022/06/01 06:24:10;;;;;;;16.50;12.30;;;11.70;99.90;;;;;;5080736;28;20081;-62
2022/06/01 06:26:37;;;;;;;15.73;12.48;;;11.80;99.90;;;;;;5078727;28;20063;-63
2022/06/01 06:29:08;;;;;;;13.75;10.93;;;11.90;99.90;;;;;;5071051;28;20072;-63
2022/06/01 06:31:34;;;;;;;15.85;11.07;;;11.90;99.90;;;;;;5072255;28;20086;-62
2022/06/01 06:34:00;;;;;;;13.48;9.75;;;12.10;99.90;;;;;;5079508;28;20377;-62
2022/06/01 06:36:26;;;;;;;13.82;9.82;;;12.20;99.90;;;;;;5071791;28;20051;-62
2022/06/01 06:38:52;;;;;;;10.88;9.10;;;12.30;99.90;;;;;;5072022;28;20087;-62
2022/06/01 06:41:18;;;;;;;10.15;8.85;;;12.40;99.90;;;;;;5073033;28;20037;-62
2022/06/01 06:43:44;;;;;;;9.88;7.80;;;12.40;99.90;;;;;;5075337;28;20048;-63
2022/06/01 06:46:12;;;;;;;8.95;7.32;;;12.60;99.90;;;;;;5092392;28;20055;-62
2022/06/01 06:48:39;;;;;;;10.48;8.45;;;12.50;99.90;;;;;;5087907;28;20371;-63
2022/06/01 06:51:05;;;;;;;9.15;7.10;;;12.60;99.80;;;;;;5077126;28;20040;-63
2022/06/01 06:53:32;;;;;;;12.43;8.50;;;12.80;99.70;;;;;;5070190;28;20400;-63
2022/06/01 06:55:57;;;;;;;11.43;8.77;;;12.80;99.10;;;;;;5092761;28;20063;-63
2022/06/01 06:58:24;;;;;;;11.30;9.38;;;12.90;98.60;;;;;;5092590;28;20177;-63
2022/06/01 07:00:49;;;;;;;11.38;9.43;;;13.00;98.30;;;;;;5088300;28;20093;-63
2022/06/01 07:03:15;;;;;;;11.93;9.30;;;13.00;97.90;;;;;;5070021;28;20044;-62
2022/06/01 07:08:27;;;;;;;12.05;9.90;;;13.20;97.20;;;;;;5071410;28;20032;-62
2022/06/01 07:10:53;;;;;;;12.90;9.23;;;13.30;97.10;;;;;;5071113;28;20037;-63
2022/06/01 07:13:19;;;;;;;13.35;9.38;;;13.40;96.20;;;;;;5077798;28;20040;-62
2022/06/01 07:15:45;;;;;;;10.32;8.90;;;13.50;96.10;;;;;;5088293;28;20043;-62
2022/06/01 07:18:10;;;;;;;11.55;9.57;;;13.60;95.70;;;;;;5089589;28;20040;-63
2022/06/01 07:20:36;;;;;;;11.85;9.98;;;13.60;95.10;;;;;;5072470;28;20052;-62
2022/06/01 07:23:02;;;;;;;13.02;10.65;;;13.70;95.00;;;;;;5070814;28;20499;-62
2022/06/01 07:25:28;;;;;;;12.18;9.75;;;13.70;94.90;;;;;;5071763;28;20136;-63
2022/06/01 07:27:54;;;;;;;15.23;10.90;;;13.90;94.60;;;;;;5076574;28;20048;-63
2022/06/01 07:30:21;;;;;;;12.15;10.02;;;13.90;94.50;;;;;;5071113;28;20041;-62
2022/06/01 07:32:47;;;;;;;12.90;10.30;;;14.10;94.00;;;;;;5075005;28;20039;-63
2022/06/01 07:35:16;;;;;;;11.88;9.73;;;14.20;93.60;;;;;;5071789;28;20044;-63
2022/06/01 07:43:15;;;;;;;10.30;9.07;;;15.10;92.10;;;;;;5084762;28;20140;-64
2022/06/01 07:45:44;;;;;;;12.97;10.03;;;15.70;90.70;;;;;;5077582;28;20094;-63
2022/06/01 07:48:12;;;;;;;12.30;8.15;;;16.10;90.70;;;;;;5067577;28;20306;-63
2022/06/01 07:50:38;;;;;;;10.65;7.38;;;16.50;90.50;;;;;;5068564;28;20040;-63
2022/06/01 07:53:06;;;;;;;9.38;6.38;;;16.40;88.50;;;;;;5070991;28;20082;-63
2022/06/01 07:55:32;;;;;;;8.85;7.05;;;16.30;87.30;;;;;;5080227;28;20093;-64
2022/06/01 07:57:58;;;;;;;8.70;6.80;;;16.80;86.10;;;;;;5075344;28;20032;-63
2022/06/01 08:00:23;;;;;;;10.32;7.05;;;16.50;85.50;;;;;;5079157;28;20341;-63
2022/06/01 08:02:49;;;;;;;9.20;7.75;;;16.30;85.40;;;;;;5074537;28;20051;-63
2022/06/01 08:05:17;;;;;;;9.85;8.07;;;15.90;87.30;;;;;;5075827;28;20090;-63
2022/06/01 08:07:43;;;;;;;11.55;9.23;;;15.00;90.20;;;;;;5079708;28;20124;-63
2022/06/01 08:10:11;;;;;;;14.95;11.13;;;14.30;93.60;;;;;;5070062;28;20435;-64
2022/06/01 08:15:22;;;;;;;14.25;11.35;;;13.20;98.30;;;;;;5077351;28;20049;-64
2022/06/01 08:17:48;;;;;;;11.52;9.45;;;12.80;99.90;;;;;;5080984;28;20064;-64
2022/06/01 08:20:15;;;;;;;8.05;6.78;;;12.50;99.90;;;;;;5075043;28;20071;-64
2022/06/01 08:22:41;;;;;;;6.85;5.25;;;12.20;99.90;;;;;;5068696;28;20043;-66
2022/06/01 08:25:09;;;;;;;6.47;3.90;;;11.80;99.90;;;;;;5069623;28;20036;-66
2022/06/01 08:27:36;;;;;;;6.97;3.53;;;11.50;99.90;;;;;;5070622;28;20033;-66
2022/06/01 08:30:02;;;;;;;5.35;3.35;;;11.00;99.90;;;;;;5070704;28;20404;-66
2022/06/01 08:32:28;;;;;;;2.97;2.38;;;10.90;99.90;;;;;;5071945;28;20086;-66
2022/06/01 08:34:54;;;;;;;3.67;2.30;;;10.70;99.90;;;;;;5069348;28;20431;-66
2022/06/01 08:37:19;;;;;;;2.00;1.80;;;10.50;99.90;;;;;;5071689;28;20053;-65
2022/06/01 08:39:45;;;;;;;2.50;1.60;;;10.40;99.90;;;;;;5083816;28;20043;-66
2022/06/01 08:42:14;;;;;;;3.22;2.30;;;10.20;99.90;;;;;;5071986;28;20033;-65
2022/06/01 08:44:43;;;;;;;2.30;1.88;;;10.20;99.90;;;;;;5071202;28;20140;-64
2022/06/01 08:47:16;;;;;;;2.67;1.90;;;10.10;99.90;;;;;;5079973;28;20047;-65
2022/06/01 08:49:42;;;;;;;3.10;1.83;;;10.00;99.90;;;;;;5070505;28;20036;-65
2022/06/01 08:52:08;;;;;;;2.63;2.00;;;10.00;99.90;;;;;;5075074;28;20514;-64
2022/06/01 08:54:34;;;;;;;3.25;2.20;;;10.00;99.90;;;;;;5073407;28;20025;-64
2022/06/01 08:57:06;;;;;;;3.67;2.45;;;10.10;99.90;;;;;;5080504;28;20036;-64
2022/06/01 08:59:40;;;;;;;3.90;2.55;;;10.20;99.90;;;;;;5076034;28;20075;-64
2022/06/01 09:02:44;;;;;;;3.15;2.60;;;10.30;99.90;;;;;;5072353;28;20041;-64
2022/06/01 09:05:18;;;;;;;2.63;2.30;;;10.50;99.90;;;;;;5076668;28;20065;-64
2022/06/01 09:08:06;;;;;;;2.38;2.17;;;10.70;99.90;;;;;;5076930;28;20040;-64
2022/06/01 09:10:51;;;;;;;2.85;2.03;;;10.80;99.90;;;;;;5073858;28;20090;-63
2022/06/01 09:13:24;;;;;;;2.10;1.90;;;11.10;99.90;;;;;;5078583;28;20047;-63
2022/06/01 09:16:03;;;;;;;3.15;1.67;;;11.70;99.90;;;;;;5080002;28;20390;-63
2022/06/01 09:18:33;;;;;;;1.98;1.48;;;12.40;99.90;;;;;;5083849;28;20060;-64
2022/06/01 09:23:44;;;;;;;1.30;1.10;;;14.80;99.90;;;;;;5072222;28;20053;-63
2022/06/01 09:26:27;;;;;;;1.92;1.08;;;16.00;99.40;;;;;;5074701;28;20136;-64
2022/06/01 09:28:58;;;;;;;0.85;0.85;;;16.80;95.30;;;;;;5087897;28;20440;-64
2022/06/01 09:31:30;;;;;;;0.60;0.60;;;17.50;93.30;;;;;;5095395;28;20361;-64
2022/06/01 09:34:21;;;;;;;1.45;0.73;;;17.70;91.70;;;;;;5077451;28;20028;-64
2022/06/01 09:36:54;;;;;;;0.80;0.80;;;17.70;76.10;;;;;;5084556;28;20048;-64
2022/06/01 09:39:20;;;;;;;1.00;0.88;;;18.10;81.60;;;;;;5076331;28;20051;-64
2022/06/01 09:41:46;;;;;;;0.60;0.60;;;17.70;86.40;;;;;;5082364;28;20040;-64
2022/06/01 09:44:18;;;;;;;1.10;1.00;;;18.20;85.00;;;;;;5073883;28;20089;-64
2022/06/01 09:47:00;;;;;;;1.95;1.10;;;18.80;74.30;;;;;;5074541;28;20037;-64
2022/06/01 09:49:36;;;;;;;1.95;1.85;;;19.50;72.80;;;;;;5072449;28;20048;-64
2022/06/01 09:52:11;;;;;;;2.17;1.98;;;19.00;77.60;;;;;;5086407;28;20076;-64
2022/06/01 09:54:42;;;;;;;1.65;1.55;;;19.30;69.80;;;;;;5074594;28;20041;-64
2022/06/01 09:57:17;;;;;;;2.60;2.03;;;19.30;74.00;;;;;;5081855;28;20039;-64
2022/06/01 10:08:19;;;;;;;2.92;2.42;;;22.50;63.20;;;;;;5078127;28;20036;-65
2022/06/01 10:11:04;;;;;;;1.70;1.60;;;21.90;62.50;;;;;;5074482;28;20079;-64
2022/06/01 10:13:49;;;;;;;2.88;2.30;;;22.90;61.80;;;;;;5075907;28;20032;-64
2022/06/01 10:16:37;;;;;;;2.15;1.95;;;22.60;50.50;;;;;;5076576;28;20051;-64
2022/06/01 10:19:07;;;;;;;2.90;2.10;;;22.80;53.60;;;;;;5084082;28;20028;-65
2022/06/01 10:22:11;;;;;;;3.03;2.70;;;22.00;59.40;;;;;;5087715;28;20085;-64
2022/06/01 10:24:53;;;;;;;2.63;2.42;;;21.10;58.60;;;;;;5071189;28;21360;-64
2022/06/01 10:27:22;;;;;;;2.58;2.38;;;20.40;63.20;;;;;;5076014;28;20059;-65
2022/06/01 10:29:57;;;;;;;2.67;2.40;;;19.60;65.20;;;;;;5086958;28;20047;-63
2022/06/01 10:32:47;;;;;;;3.20;2.80;;;19.00;66.80;;;;;;5094344;28;20040;-65
2022/06/01 10:35:15;;;;;;;4.15;3.30;;;18.40;67.40;;;;;;5089364;28;20357;-64
2022/06/01 10:37:56;;;;;;;3.50;3.17;;;17.60;72.40;;;;;;5087226;28;20128;-64
2022/06/01 10:40:34;;;;;;;3.40;3.03;;;16.80;71.50;;;;;;5070832;28;20040;-64
2022/06/01 10:43:17;;;;;;;4.43;2.88;;;16.10;75.50;;;;;;5086214;28;20056;-63
2022/06/01 10:45:52;;;;;;;4.18;2.75;;;16.00;78.80;;;;;;5082733;28;20123;-64
2022/06/01 10:48:25;;;;;;;4.28;3.22;;;15.80;80.20;;;;;;5073488;28;20123;-64
2022/06/01 10:50:59;;;;;;;3.40;2.90;;;15.90;81.60;;;;;;5080326;28;20032;-64
2022/06/01 10:53:46;;;;;;;4.60;3.40;;;15.60;81.90;;;;;;5090686;28;20044;-64
2022/06/01 10:56:13;;;;;;;3.45;3.15;;;15.60;83.90;;;;;;5091695;28;20040;-63
2022/06/01 10:58:38;;;;;;;3.90;3.08;;;15.60;84.30;;;;;;5082624;28;20077;-64
2022/06/01 11:01:09;;;;;;;3.42;3.10;;;15.60;79.10;;;;;;5081075;28;20064;-64
2022/06/01 11:03:42;;;;;;;3.78;3.42;;;15.50;82.20;;;;;;5071384;28;20036;-64
2022/06/01 11:06:20;;;;;;;4.40;3.33;;;15.60;82.80;;;;;;5072236;28;20055;-64
2022/06/01 11:09:01;;;;;;;4.68;3.50;;;15.40;82.60;;;;;;5077940;28;20064;-64
2022/06/01 11:11:47;;;;;;;3.00;2.70;;;15.80;82.60;;;;;;5072738;28;20105;-62
2022/06/01 11:14:31;;;;;;;3.63;2.95;;;16.30;83.80;;;;;;5073373;28;20460;-62
2022/06/01 11:17:08;;;;;;;3.72;3.20;;;16.40;81.80;;;;;;5072605;28;20048;-63
2022/06/01 11:19:56;;;;;;;3.88;3.00;;;16.60;80.80;;;;;;5069473;28;20051;-62
2022/06/01 11:22:25;;;;;;;3.30;3.03;;;16.50;79.30;;;;;;5081030;28;20068;-63
2022/06/01 11:25:17;;;;;;;3.67;2.80;;;16.00;80.00;;;;;;5074834;28;20048;-62
2022/06/01 11:28:06;;;;;;;4.60;3.28;;;15.70;81.20;;;;;;5074889;28;20400;-61
2022/06/01 11:30:50;;;;;;;5.88;3.22;;;14.80;83.80;;;;;;5078976;28;20126;-63
2022/06/01 11:33:51;;;;;;;3.78;3.30;;;13.60;92.80;;;;;;5080253;28;20044;-63
2022/06/01 11:36:48;;;;;;;7.15;3.50;;;12.90;99.90;;;;;;5080454;28;20091;-64
2022/06/01 11:39:46;;;;;;;8.40;3.95;;;12.20;99.90;;;;;;5073658;28;20151;-65
2022/06/01 11:42:31;;;;;;;7.63;3.35;;;12.00;99.90;;;;;;5078276;28;20039;-63
2022/06/01 11:45:09;;;;;;;6.10;3.30;;;11.80;99.90;;;;;;5074872;28;20138;-63
2022/06/01 11:47:56;;;;;;;5.88;4.40;;;11.60;99.90;;;;;;5072336;28;20043;-63
2022/06/01 11:50:34;;;;;;;7.47;3.83;;;11.50;99.90;;;;;;5068276;28;20044;-63
2022/06/01 11:53:07;;;;;;;4.05;2.95;;;11.50;99.90;;;;;;5074120;28;20039;-63
2022/06/01 11:55:36;;;;;;;3.28;2.10;;;11.40;99.90;;;;;;5074464;28;20400;-62
2022/06/01 11:58:21;;;;;;;3.63;2.25;;;11.30;99.90;;;;;;5082104;28;20135;-64
2022/06/01 12:00:51;;;;;;;3.22;1.77;;;11.50;99.90;;;;;;5066534;28;20044;-62
2022/06/01 12:03:20;;;;;;;3.72;1.92;;;11.50;99.90;;;;;;5068478;28;20052;-62
2022/06/01 12:05:57;;;;;;;4.35;1.77;;;11.70;99.90;;;;;;5069638;28;20114;-63
2022/06/01 12:08:32;;;;;;;3.13;1.40;;;11.80;99.90;;;;;;5072597;28;20047;-63
2022/06/01 12:11:00;;;;;;;2.92;1.50;;;12.20;99.90;;;;;;5071747;28;20398;-65
2022/06/01 12:13:46;;;;;;;2.25;1.40;;;13.80;99.90;;;;;;5070719;28;20037;-65
2022/06/01 12:16:29;;;;;;;1.52;1.00;;;15.10;99.90;;;;;;5064844;28;20130;-62
2022/06/01 12:18:59;;;;;;;2.05;1.15;;;14.70;99.90;;;;;;5069697;28;20049;-63
2022/06/01 12:21:25;;;;;;;1.65;0.90;;;14.50;99.90;;;;;;5082232;28;20467;-62
2022/06/01 12:30:05;;;;;;;1.58;0.90;;;14.30;99.90;;;;;;5071514;28;20052;-63
2022/06/01 12:33:00;;;;;;;2.03;0.95;;;14.80;99.90;;;;;;5086141;28;20043;-63
2022/06/01 12:35:30;;;;;;;2.03;1.20;;;14.60;99.90;;;;;;5067068;28;20044;-63
2022/06/01 12:38:03;;;;;;;1.77;1.00;;;14.50;99.90;;;;;;5072160;28;20089;-64
2022/06/01 12:40:29;;;;;;;2.63;1.00;;;14.70;99.90;;;;;;5066929;28;20049;-63
2022/06/01 12:43:00;;;;;;;1.65;1.25;;;15.20;99.90;;;;;;5074076;28;20040;-64
2022/06/01 12:45:38;;;;;;;1.05;0.90;;;15.50;99.90;;;;;;5082786;28;20473;-64
2022/06/01 12:48:08;;;;;;;1.58;0.75;;;17.60;99.90;;;;;;5075184;28;20033;-64
2022/06/01 12:50:52;;;;;;;1.70;0.80;;;18.10;99.40;;;;;;5075356;28;20051;-63
2022/06/01 12:53:24;;;;;;;2.15;0.63;;;18.10;99.90;;;;;;5069644;28;20036;-63
2022/06/01 12:56:12;;;;;;;1.73;0.90;;;17.70;99.90;;;;;;5080864;28;20060;-63
2022/06/01 12:58:40;;;;;;;1.25;0.50;;;17.50;99.90;;;;;;5078978;28;20735;-63
2022/06/01 13:01:06;;;;;;;1.60;0.77;;;17.50;96.70;;;;;;5081784;28;20582;-63
2022/06/01 13:03:35;;;;;;;1.13;0.75;;;17.20;96.40;;;;;;5072944;28;20039;-63
2022/06/01 13:06:12;;;;;;;1.05;0.73;;;17.20;96.60;;;;;;5076619;28;20036;-63
2022/06/01 13:08:39;;;;;;;0.80;0.57;;;17.00;99.90;;;;;;5078552;28;20037;-64
2022/06/01 13:11:22;;;;;;;0.80;0.80;;;18.00;98.40;;;;;;5072232;28;20693;-63
2022/06/01 13:13:47;;;;;;;1.85;1.42;;;20.00;95.60;;;;;;5075020;28;20032;-64
2022/06/01 13:16:14;;;;;;;3.40;2.08;;;21.00;87.20;;;;;;5081906;28;20093;-64
2022/06/01 13:18:43;;;;;;;2.85;2.00;;;21.50;80.20;;;;;;5084783;28;20093;-64
2022/06/01 13:21:17;;;;;;;2.45;1.88;;;21.50;80.30;;;;;;5075032;28;20082;-63
2022/06/01 13:23:50;;;;;;;2.00;1.60;;;20.50;81.50;;;;;;5084023;28;20032;-63
2022/06/01 13:26:27;;;;;;;1.13;0.90;;;19.30;80.50;;;;;;5076849;28;20031;-63
2022/06/01 13:28:53;;;;;;;1.90;0.77;;;18.10;79.30;;;;;;5087771;28;20036;-63
2022/06/01 13:31:18;;;;;;;0.68;0.55;;;17.20;83.20;;;;;;5083167;28;20040;-63
2022/06/01 13:33:45;;;;;;;0.70;0.70;;;16.40;84.90;;;;;;5080010;28;20078;-63
2022/06/01 13:36:24;;;;;;;1.50;0.70;;;15.80;87.50;;;;;;5089469;28;20131;-63